createdAt,value
2023-01-31T00:01:33.366Z,3.50
2023-01-31T00:04:02.432Z,4.40
2023-01-31T00:06:31.281Z,3.53
2023-01-31T00:08:59.424Z,3.60
2023-01-31T00:11:27.377Z,4.03
2023-01-31T00:13:54.762Z,5.82
2023-01-31T00:16:22.504Z,4.10
2023-01-31T00:18:50.521Z,3.75
2023-01-31T00:21:19.319Z,3.47
2023-01-31T00:23:47.139Z,2.78
2023-01-31T00:26:15.784Z,3.70
2023-01-31T00:28:43.488Z,5.22
2023-01-31T00:31:12.141Z,3.33
2023-01-31T00:33:40.723Z,3.70
2023-01-31T00:36:09.251Z,3.38
2023-01-31T00:38:36.884Z,3.25
2023-01-31T00:41:04.342Z,3.42
2023-01-31T00:43:36.966Z,3.33
2023-01-31T00:46:04.410Z,4.72
2023-01-31T00:48:31.683Z,3.70
2023-01-31T00:50:58.870Z,3.63
2023-01-31T00:53:25.984Z,3.35
2023-01-31T00:55:54.026Z,3.20
2023-01-31T00:58:21.698Z,4.38
2023-01-31T01:00:49.346Z,3.60
2023-01-31T01:03:17.422Z,3.47
2023-01-31T01:05:44.597Z,3.38
2023-01-31T01:08:12.138Z,3.47
2023-01-31T01:10:39.624Z,3.72
2023-01-31T01:13:06.776Z,3.75
2023-01-31T01:15:37.924Z,3.47
2023-01-31T01:18:05.060Z,2.83
2023-01-31T01:20:32.322Z,3.63
2023-01-31T01:23:00.370Z,3.28
2023-01-31T01:25:27.544Z,3.40
2023-01-31T01:27:54.744Z,3.47
2023-01-31T01:30:21.851Z,4.00
2023-01-31T01:32:48.976Z,3.00
2023-01-31T01:35:16.111Z,2.92
2023-01-31T01:37:43.298Z,3.83
2023-01-31T01:40:10.713Z,3.65
2023-01-31T01:42:37.934Z,4.57
2023-01-31T01:45:06.133Z,3.08
2023-01-31T01:47:51.949Z,3.08
2023-01-31T01:50:28.701Z,3.80
2023-01-31T01:52:55.940Z,2.92
2023-01-31T01:55:35.076Z,3.83
2023-01-31T01:58:10.607Z,3.13
2023-01-31T02:00:38.319Z,3.13
2023-01-31T02:03:06.696Z,3.90
2023-01-31T02:05:41.255Z,2.67
2023-01-31T02:08:11.163Z,3.03
2023-01-31T02:10:43.176Z,3.05
2023-01-31T02:13:11.951Z,4.10
2023-01-31T02:15:39.152Z,3.28
2023-01-31T02:18:06.847Z,3.72
2023-01-31T02:20:43.822Z,2.50
2023-01-31T02:23:29.768Z,3.05
2023-01-31T02:26:09.252Z,3.95
2023-01-31T02:28:42.052Z,2.95
2023-01-31T02:31:22.970Z,2.95
2023-01-31T02:33:54.897Z,2.70
2023-01-31T02:36:40.587Z,3.67
2023-01-31T02:39:13.512Z,3.55
2023-01-31T02:41:44.892Z,4.15
2023-01-31T02:44:40.569Z,2.92
2023-01-31T02:47:16.358Z,3.05
2023-01-31T02:49:49.747Z,2.75
2023-01-31T02:52:19.105Z,2.72
2023-01-31T02:55:26.764Z,3.17
2023-01-31T02:57:56.356Z,2.85
2023-01-31T03:00:24.640Z,3.58
2023-01-31T03:02:51.782Z,2.92
2023-01-31T03:05:20.376Z,3.40
2023-01-31T03:07:49.109Z,2.92
2023-01-31T03:10:22.448Z,3.78
2023-01-31T03:12:58.530Z,3.63
2023-01-31T03:15:56.352Z,4.22
2023-01-31T03:18:27.049Z,2.88
2023-01-31T03:20:59.771Z,5.18
2023-01-31T03:23:29.702Z,3.03
2023-01-31T03:25:57.633Z,2.40
2023-01-31T03:28:28.543Z,3.15
2023-01-31T03:31:07.354Z,3.33
2023-01-31T03:33:46.221Z,3.17
2023-01-31T03:36:18.341Z,3.70
2023-01-31T03:38:55.787Z,3.28
2023-01-31T03:41:23.278Z,3.15
2023-01-31T03:43:55.150Z,3.47
2023-01-31T03:46:26.284Z,2.95
2023-01-31T03:48:55.396Z,2.95
2023-01-31T03:51:25.491Z,3.40
2023-01-31T03:53:55.003Z,3.35
2023-01-31T03:56:22.144Z,3.42
2023-01-31T03:58:53.689Z,3.33
2023-01-31T04:01:23.349Z,4.22
2023-01-31T04:03:55.711Z,2.90
2023-01-31T04:06:24.497Z,3.17
2023-01-31T04:08:51.713Z,3.15
2023-01-31T04:11:21.628Z,2.75
2023-01-31T04:13:48.712Z,3.95
2023-01-31T04:16:15.969Z,3.83
2023-01-31T04:18:43.106Z,3.28
2023-01-31T04:21:10.660Z,2.95
2023-01-31T04:23:37.892Z,4.13
2023-01-31T04:26:05.208Z,2.72
2023-01-31T04:28:34.691Z,4.32
2023-01-31T04:31:01.926Z,3.88
2023-01-31T04:33:29.132Z,4.00
2023-01-31T04:35:56.266Z,4.75
2023-01-31T04:38:23.432Z,2.92
2023-01-31T04:40:50.598Z,4.20
2023-01-31T04:43:18.013Z,4.32
2023-01-31T04:45:45.136Z,3.90
2023-01-31T04:48:13.174Z,3.35
2023-01-31T04:50:40.347Z,3.65
2023-01-31T04:53:08.775Z,3.65
2023-01-31T04:55:36.466Z,4.53
2023-01-31T04:58:05.775Z,4.78
2023-01-31T05:00:34.283Z,3.78
2023-01-31T05:03:02.071Z,4.50
2023-01-31T05:05:29.235Z,4.80
2023-01-31T05:07:56.345Z,3.53
2023-01-31T05:10:25.758Z,3.33
2023-01-31T05:12:52.910Z,4.50
2023-01-31T05:15:21.206Z,4.18
2023-01-31T05:18:02.580Z,4.20
2023-01-31T05:20:35.026Z,4.57
2023-01-31T05:23:02.216Z,4.30
2023-01-31T05:25:31.509Z,4.85
2023-01-31T05:27:59.071Z,4.50
2023-01-31T05:30:27.507Z,4.65
2023-01-31T05:32:54.814Z,5.40
2023-01-31T05:35:22.365Z,4.63
2023-01-31T05:37:49.696Z,4.55
2023-01-31T05:40:17.780Z,5.28
2023-01-31T05:42:45.097Z,4.93
2023-01-31T05:45:13.332Z,6.35
2023-01-31T05:47:41.770Z,6.80
2023-01-31T05:50:09.239Z,5.55
2023-01-31T05:52:36.363Z,6.50
2023-01-31T05:55:03.449Z,6.07
2023-01-31T05:57:30.944Z,5.22
2023-01-31T05:59:58.387Z,5.35
2023-01-31T06:02:25.638Z,6.72
2023-01-31T06:04:53.169Z,6.10
2023-01-31T06:07:21.762Z,6.07
2023-01-31T06:09:52.368Z,6.03
2023-01-31T06:12:19.740Z,7.15
2023-01-31T06:14:47.336Z,8.10
2023-01-31T06:17:14.525Z,6.18
2023-01-31T06:19:41.706Z,7.22
2023-01-31T06:22:08.969Z,7.10
2023-01-31T06:24:36.052Z,9.05
2023-01-31T06:27:03.197Z,7.47
2023-01-31T06:29:30.656Z,8.05
2023-01-31T06:32:24.253Z,9.10
2023-01-31T06:34:51.384Z,7.40
2023-01-31T06:37:18.481Z,8.05
2023-01-31T06:39:45.631Z,8.00
2023-01-31T06:42:12.773Z,7.70
2023-01-31T06:44:39.995Z,8.73
2023-01-31T06:47:07.148Z,8.00
2023-01-31T06:49:34.284Z,7.82
2023-01-31T06:52:01.427Z,7.82
2023-01-31T06:54:28.564Z,7.88
2023-01-31T06:56:56.261Z,6.60
2023-01-31T06:59:26.449Z,8.43
2023-01-31T07:01:53.720Z,10.38
2023-01-31T07:04:20.919Z,8.30
2023-01-31T07:06:48.064Z,9.00
2023-01-31T07:09:15.286Z,9.45
2023-01-31T07:11:42.431Z,8.65
2023-01-31T07:14:09.529Z,9.85
2023-01-31T07:16:38.177Z,9.23
2023-01-31T07:19:05.579Z,10.45
2023-01-31T07:21:33.319Z,9.65
2023-01-31T07:24:02.721Z,9.77
2023-01-31T07:26:30.006Z,10.07
2023-01-31T07:28:57.174Z,10.23
2023-01-31T07:31:24.304Z,12.35
2023-01-31T07:33:51.571Z,11.15
2023-01-31T07:36:22.881Z,10.07
2023-01-31T07:38:50.589Z,9.85
2023-01-31T07:41:17.988Z,10.75
2023-01-31T07:43:45.059Z,10.90
2023-01-31T07:46:12.450Z,11.18
2023-01-31T07:48:39.954Z,10.13
2023-01-31T07:51:07.580Z,10.45
2023-01-31T07:53:36.510Z,9.07
2023-01-31T07:56:07.415Z,10.13
2023-01-31T07:58:38.357Z,10.02
2023-01-31T08:01:24.491Z,10.70
2023-01-31T08:03:52.205Z,10.55
2023-01-31T08:06:19.819Z,9.25
2023-01-31T08:08:47.586Z,10.23
2023-01-31T08:11:15.145Z,11.18
2023-01-31T08:13:42.836Z,10.98
2023-01-31T08:16:10.396Z,11.48
2023-01-31T08:18:38.471Z,10.75
2023-01-31T08:21:06.004Z,11.20
2023-01-31T08:23:33.138Z,11.45
2023-01-31T08:26:04.204Z,11.60
2023-01-31T08:28:31.915Z,10.80
2023-01-31T08:31:08.183Z,11.15
2023-01-31T08:33:37.110Z,9.27
2023-01-31T08:36:17.772Z,9.45
2023-01-31T08:38:45.224Z,11.35
2023-01-31T08:41:13.583Z,9.68
2023-01-31T08:43:54.867Z,8.55
2023-01-31T08:46:29.457Z,9.73
2023-01-31T08:48:56.751Z,9.90
2023-01-31T08:51:24.368Z,9.60
2023-01-31T08:53:51.900Z,10.10
2023-01-31T08:56:21.302Z,8.85
2023-01-31T08:58:48.757Z,9.23
2023-01-31T09:01:17.282Z,9.55
2023-01-31T09:03:45.427Z,8.57
2023-01-31T09:06:17.171Z,9.30
2023-01-31T09:08:44.589Z,9.45
2023-01-31T09:11:11.924Z,8.85
2023-01-31T09:13:39.231Z,8.63
2023-01-31T09:16:11.319Z,8.70
2023-01-31T09:18:39.390Z,8.48
2023-01-31T09:21:08.073Z,9.80
2023-01-31T09:23:35.802Z,7.97
2023-01-31T09:26:03.320Z,8.82
2023-01-31T09:28:30.953Z,8.82
2023-01-31T09:31:03.630Z,9.35
2023-01-31T09:33:33.349Z,7.85
2023-01-31T09:36:02.074Z,8.07
2023-01-31T09:38:29.701Z,7.78
2023-01-31T09:40:58.169Z,7.40
2023-01-31T09:43:27.511Z,7.55
2023-01-31T09:45:57.212Z,7.35
2023-01-31T09:48:28.370Z,7.13
2023-01-31T09:50:56.944Z,7.38
2023-01-31T09:53:25.600Z,6.78
2023-01-31T09:56:05.103Z,6.18
2023-01-31T09:58:51.207Z,8.07
2023-01-31T10:01:27.049Z,6.68
2023-01-31T10:03:57.282Z,5.75
2023-01-31T10:06:33.312Z,5.82
2023-01-31T10:09:27.220Z,5.75
2023-01-31T10:12:02.651Z,6.18
2023-01-31T10:14:32.714Z,5.65
2023-01-31T10:17:16.507Z,5.88
2023-01-31T10:19:43.748Z,5.90
2023-01-31T10:22:13.181Z,5.72
2023-01-31T10:24:44.074Z,5.95
2023-01-31T10:27:20.029Z,6.40
2023-01-31T10:29:56.131Z,5.47
2023-01-31T10:32:31.929Z,5.95
2023-01-31T10:35:19.340Z,5.45
2023-01-31T10:38:02.108Z,5.60
2023-01-31T10:40:39.808Z,5.88
2023-01-31T10:43:16.582Z,6.38
2023-01-31T10:45:43.831Z,6.18
2023-01-31T10:48:10.981Z,6.90
2023-01-31T10:51:07.293Z,6.25
2023-01-31T10:53:43.820Z,6.72
2023-01-31T10:56:13.269Z,6.80
2023-01-31T10:58:40.434Z,6.18
2023-01-31T11:01:11.875Z,6.85
2023-01-31T11:03:42.180Z,7.40
2023-01-31T11:06:12.493Z,6.30
2023-01-31T11:08:54.621Z,7.18
2023-01-31T11:11:23.000Z,6.65
2023-01-31T11:14:03.339Z,6.20
2023-01-31T11:16:40.442Z,6.60
2023-01-31T11:19:20.766Z,6.40
2023-01-31T11:21:52.182Z,6.07
2023-01-31T11:24:23.958Z,6.70
2023-01-31T11:27:00.552Z,7.30
2023-01-31T11:29:29.772Z,5.55
2023-01-31T11:31:57.896Z,7.22
2023-01-31T11:34:30.699Z,7.43
2023-01-31T11:37:24.027Z,7.40
2023-01-31T11:39:57.177Z,8.07
2023-01-31T11:42:24.396Z,8.45
2023-01-31T11:45:01.921Z,7.63
2023-01-31T11:47:49.353Z,9.05
2023-01-31T11:50:32.457Z,8.52
2023-01-31T11:53:01.111Z,9.73
2023-01-31T11:55:29.089Z,9.15
2023-01-31T11:58:00.327Z,8.40
2023-01-31T12:00:31.647Z,9.80
2023-01-31T12:03:08.892Z,9.98
2023-01-31T12:05:39.620Z,9.85
2023-01-31T12:08:06.790Z,9.20
2023-01-31T12:10:36.985Z,9.60
2023-01-31T12:13:18.905Z,7.93
2023-01-31T12:15:49.647Z,7.70
2023-01-31T12:18:20.922Z,7.47
2023-01-31T12:20:55.236Z,7.32
2023-01-31T12:23:32.188Z,6.28
2023-01-31T12:26:09.152Z,6.47
2023-01-31T12:28:36.226Z,6.38
2023-01-31T12:31:22.049Z,6.10
2023-01-31T12:33:57.952Z,7.45
2023-01-31T12:36:25.223Z,6.35
2023-01-31T12:39:01.990Z,6.65
2023-01-31T12:41:42.452Z,6.22
2023-01-31T12:44:28.264Z,6.28
2023-01-31T12:47:09.976Z,6.90
2023-01-31T12:49:48.277Z,8.02
2023-01-31T12:52:18.359Z,7.40
2023-01-31T12:54:55.003Z,5.78
2023-01-31T12:57:39.754Z,6.70
2023-01-31T13:00:10.889Z,6.15
2023-01-31T13:03:01.012Z,5.78
2023-01-31T13:05:41.506Z,5.85
2023-01-31T13:08:17.510Z,5.85
2023-01-31T13:10:46.722Z,6.35
2023-01-31T13:13:34.092Z,5.22
2023-01-31T13:16:06.267Z,5.65
2023-01-31T13:18:34.708Z,5.53
2023-01-31T13:21:04.825Z,4.75
2023-01-31T13:23:34.413Z,6.00
2023-01-31T13:26:13.124Z,7.20
2023-01-31T13:29:00.538Z,5.60
2023-01-31T13:31:32.352Z,6.32
2023-01-31T13:34:02.503Z,5.55
2023-01-31T13:36:33.120Z,5.72
2023-01-31T13:39:02.711Z,5.95
2023-01-31T13:41:31.254Z,5.35
2023-01-31T13:43:59.461Z,5.30
2023-01-31T13:46:32.803Z,5.22
2023-01-31T13:49:07.474Z,5.15
2023-01-31T13:51:37.868Z,5.18
2023-01-31T13:54:08.223Z,4.25
2023-01-31T13:56:36.864Z,4.53
2023-01-31T13:59:08.285Z,4.53
2023-01-31T14:01:36.516Z,5.10
2023-01-31T14:04:15.529Z,4.75
2023-01-31T14:06:55.099Z,4.57
2023-01-31T14:09:33.247Z,4.65
2023-01-31T14:12:01.562Z,5.15
2023-01-31T14:14:38.785Z,4.25
2023-01-31T14:17:06.825Z,3.72
2023-01-31T14:20:01.202Z,5.60
2023-01-31T14:22:35.745Z,4.18
2023-01-31T14:25:04.034Z,4.07
2023-01-31T14:27:36.831Z,3.10
2023-01-31T14:30:08.242Z,3.90
2023-01-31T14:32:44.645Z,3.90
2023-01-31T14:35:14.831Z,2.92
2023-01-31T14:38:00.631Z,3.33
2023-01-31T14:40:36.762Z,3.53
2023-01-31T14:43:22.081Z,2.75
2023-01-31T14:45:58.858Z,3.50
2023-01-31T14:48:44.517Z,2.90
2023-01-31T14:51:11.679Z,2.83
2023-01-31T14:53:41.668Z,3.40
2023-01-31T14:56:21.146Z,3.83
2023-01-31T14:58:48.628Z,3.63
2023-01-31T15:01:19.098Z,3.78
2023-01-31T15:03:51.627Z,2.92
2023-01-31T15:06:24.985Z,3.83
2023-01-31T15:09:12.034Z,3.13
2023-01-31T15:11:42.905Z,3.15
2023-01-31T15:14:34.649Z,3.70
2023-01-31T15:17:04.294Z,3.75
2023-01-31T15:19:35.091Z,3.20
2023-01-31T15:22:07.273Z,2.92
2023-01-31T15:24:36.301Z,4.20
2023-01-31T15:27:04.622Z,4.03
2023-01-31T15:29:41.226Z,3.53
2023-01-31T15:32:14.763Z,3.90
2023-01-31T15:34:45.448Z,3.45
2023-01-31T15:37:20.208Z,3.92
2023-01-31T15:39:52.730Z,3.65
2023-01-31T15:42:25.109Z,4.72
2023-01-31T15:45:12.334Z,3.53
2023-01-31T15:47:39.412Z,3.95
2023-01-31T15:50:15.834Z,3.72
2023-01-31T15:52:43.035Z,3.00
2023-01-31T15:55:12.124Z,3.75
2023-01-31T15:57:42.090Z,3.42
2023-01-31T16:00:18.062Z,4.18
2023-01-31T16:02:47.055Z,4.90
2023-01-31T16:05:19.775Z,4.85
2023-01-31T16:07:47.916Z,4.40
2023-01-31T16:10:15.845Z,4.43
2023-01-31T16:12:46.023Z,3.33
2023-01-31T16:15:17.746Z,5.05
2023-01-31T16:17:45.473Z,4.10
2023-01-31T16:20:32.657Z,4.10
2023-01-31T16:22:59.815Z,4.20
2023-01-31T16:25:27.892Z,4.07
2023-01-31T16:27:59.487Z,3.50
2023-01-31T16:30:26.653Z,2.90
2023-01-31T16:32:54.980Z,4.20
2023-01-31T16:35:26.932Z,3.75
2023-01-31T16:38:02.301Z,3.83
2023-01-31T16:40:35.014Z,4.53
2023-01-31T16:43:18.298Z,3.90
2023-01-31T16:45:52.910Z,3.83
2023-01-31T16:48:31.668Z,4.35
2023-01-31T16:51:00.256Z,3.53
2023-01-31T16:53:40.033Z,4.55
2023-01-31T16:56:17.380Z,4.63
2023-01-31T16:58:55.286Z,4.43
2023-01-31T17:01:22.406Z,5.22
2023-01-31T17:04:01.291Z,4.05
2023-01-31T17:06:28.511Z,4.22
2023-01-31T17:08:55.713Z,3.58
2023-01-31T17:11:39.655Z,4.25
2023-01-31T17:14:09.426Z,5.18
2023-01-31T17:16:36.584Z,3.72
2023-01-31T17:19:03.729Z,3.75
2023-01-31T17:21:33.416Z,4.55
2023-01-31T17:24:00.550Z,4.22
2023-01-31T17:26:27.740Z,3.75
2023-01-31T17:29:01.834Z,4.03
2023-01-31T17:31:31.164Z,3.63
2023-01-31T17:33:59.225Z,4.97
2023-01-31T17:36:26.409Z,4.05
2023-01-31T17:38:54.254Z,4.90
2023-01-31T17:41:24.563Z,4.00
2023-01-31T17:43:51.992Z,3.70
2023-01-31T17:46:19.627Z,4.13
2023-01-31T17:48:46.783Z,4.82
2023-01-31T17:51:14.011Z,4.05
2023-01-31T17:53:49.574Z,4.35
2023-01-31T17:56:18.955Z,3.72
2023-01-31T17:58:46.391Z,3.75
2023-01-31T18:01:14.306Z,4.50
2023-01-31T18:03:42.146Z,3.95
2023-01-31T18:06:09.979Z,5.07
2023-01-31T18:08:37.488Z,4.60
2023-01-31T18:11:08.257Z,5.38
2023-01-31T18:13:37.776Z,3.70
2023-01-31T18:16:15.699Z,3.90
2023-01-31T18:18:45.992Z,4.45
2023-01-31T18:21:20.072Z,3.92
2023-01-31T18:23:51.199Z,4.68
2023-01-31T18:26:18.751Z,5.22
2023-01-31T18:28:46.467Z,4.22
2023-01-31T18:31:15.590Z,5.07
2023-01-31T18:33:46.704Z,3.97
2023-01-31T18:36:14.877Z,4.15
2023-01-31T18:38:45.660Z,3.80
2023-01-31T18:41:14.478Z,3.63
2023-01-31T18:43:42.322Z,5.28
2023-01-31T18:46:12.748Z,4.05
2023-01-31T18:48:40.380Z,3.97
2023-01-31T18:51:08.730Z,4.47
2023-01-31T18:53:36.303Z,4.38
2023-01-31T18:56:05.778Z,4.40
2023-01-31T18:58:36.573Z,4.55
2023-01-31T19:01:09.484Z,5.97
2023-01-31T19:03:37.207Z,4.57
2023-01-31T19:06:08.001Z,4.60
2023-01-31T19:08:35.186Z,7.18
2023-01-31T19:11:06.176Z,3.67
2023-01-31T19:13:33.803Z,5.15
2023-01-31T19:16:01.939Z,4.53
2023-01-31T19:18:29.268Z,4.00
2023-01-31T19:20:56.513Z,3.83
2023-01-31T19:23:23.915Z,5.22
2023-01-31T19:25:51.120Z,4.13
2023-01-31T19:28:22.774Z,4.85
2023-01-31T19:30:51.277Z,4.60
2023-01-31T19:33:19.198Z,4.88
2023-01-31T19:35:46.485Z,4.35
2023-01-31T19:38:13.985Z,4.20
2023-01-31T19:40:42.510Z,4.65
2023-01-31T19:43:09.714Z,4.50
2023-01-31T19:45:36.987Z,4.95
2023-01-31T19:48:04.233Z,4.45
2023-01-31T19:50:31.411Z,4.63
2023-01-31T19:53:05.666Z,4.13
2023-01-31T19:55:34.550Z,4.35
2023-01-31T19:58:30.840Z,4.50
2023-01-31T20:01:17.976Z,4.20
2023-01-31T20:03:54.200Z,5.07
2023-01-31T20:06:25.636Z,5.13
2023-01-31T20:09:08.467Z,4.50
2023-01-31T20:14:29.865Z,3.90
2023-01-31T20:17:09.631Z,4.38
2023-01-31T20:19:36.887Z,5.80
2023-01-31T20:22:09.179Z,4.88
2023-01-31T20:24:49.672Z,3.92
2023-01-31T20:27:17.716Z,4.38
2023-01-31T20:29:44.919Z,4.53
2023-01-31T20:32:26.103Z,4.43
2023-01-31T20:34:53.269Z,3.63
2023-01-31T20:37:20.420Z,4.80
2023-01-31T20:39:47.498Z,5.10
2023-01-31T20:42:15.810Z,4.25
2023-01-31T20:44:44.226Z,5.05
2023-01-31T20:47:11.345Z,4.22
2023-01-31T20:49:40.871Z,5.82
2023-01-31T20:52:08.062Z,4.18
2023-01-31T20:54:35.332Z,5.22
2023-01-31T20:57:02.417Z,4.88
2023-01-31T20:59:29.542Z,4.38
2023-01-31T21:01:56.725Z,4.32
2023-01-31T21:04:23.821Z,5.15
2023-01-31T21:06:50.979Z,4.72
2023-01-31T21:09:18.137Z,4.15
2023-01-31T21:11:45.256Z,5.20
2023-01-31T21:14:12.459Z,5.65
2023-01-31T21:16:39.641Z,4.72
2023-01-31T21:19:06.797Z,6.20
2023-01-31T21:21:33.964Z,4.70
2023-01-31T21:24:04.403Z,4.25
2023-01-31T21:26:31.729Z,4.72
2023-01-31T21:29:01.286Z,6.05
2023-01-31T21:31:28.718Z,5.30
2023-01-31T21:34:06.984Z,4.18
2023-01-31T21:36:47.710Z,4.50
2023-01-31T21:39:15.251Z,4.35
2023-01-31T21:42:01.241Z,5.55
2023-01-31T21:44:28.379Z,5.00
2023-01-31T21:46:55.464Z,4.03
2023-01-31T21:49:22.863Z,4.60
2023-01-31T21:51:50.037Z,4.72
2023-01-31T21:54:17.226Z,4.18
2023-01-31T21:56:45.771Z,4.50
2023-01-31T21:59:14.486Z,4.90
2023-01-31T22:01:47.069Z,4.95
2023-01-31T22:04:31.696Z,4.20
2023-01-31T22:06:58.840Z,5.68
2023-01-31T22:09:26.978Z,5.03
2023-01-31T22:11:54.555Z,4.13
2023-01-31T22:14:21.756Z,4.10
2023-01-31T22:16:50.063Z,4.13
2023-01-31T22:19:17.260Z,5.82
2023-01-31T22:21:44.433Z,3.55
2023-01-31T22:24:11.809Z,5.20
2023-01-31T22:26:40.979Z,4.45
2023-01-31T22:29:09.136Z,4.05
2023-01-31T22:31:38.371Z,4.63
2023-01-31T22:34:06.426Z,5.68
2023-01-31T22:36:34.184Z,4.07
2023-01-31T22:39:05.687Z,6.20
2023-01-31T22:41:32.888Z,4.57
2023-01-31T22:43:59.986Z,4.35
2023-01-31T22:46:28.407Z,4.22
2023-01-31T22:48:56.145Z,4.93
2023-01-31T22:51:25.832Z,4.55
2023-01-31T22:53:53.837Z,4.88
2023-01-31T22:56:22.375Z,4.03
2023-01-31T22:58:50.131Z,4.93
2023-01-31T23:01:18.350Z,4.10
2023-01-31T23:03:45.531Z,5.43
2023-01-31T23:06:13.032Z,4.00
2023-01-31T23:08:40.287Z,4.40
2023-01-31T23:11:09.054Z,4.45
2023-01-31T23:13:36.534Z,4.30
2023-01-31T23:16:04.497Z,4.45
2023-01-31T23:18:32.114Z,4.63
2023-01-31T23:21:06.556Z,3.70
2023-01-31T23:23:33.829Z,4.75
2023-01-31T23:26:01.203Z,3.67
2023-01-31T23:28:28.902Z,4.05
2023-01-31T23:30:56.462Z,4.65
2023-01-31T23:33:24.873Z,4.30
2023-01-31T23:35:54.624Z,4.30
2023-01-31T23:38:24.413Z,5.28
2023-01-31T23:40:52.293Z,5.28
2023-01-31T23:43:19.926Z,3.80
2023-01-31T23:45:47.331Z,4.50
2023-01-31T23:48:14.554Z,4.65
2023-01-31T23:50:41.728Z,3.75
2023-01-31T23:53:08.974Z,4.43
2023-01-31T23:55:36.491Z,4.53
2023-01-31T23:58:03.623Z,4.07
